createdAt,value
2022-07-26T00:00:12.797Z,99.90
2022-07-26T00:02:47.859Z,99.90
2022-07-26T00:05:17.514Z,99.90
2022-07-26T00:07:46.992Z,99.90
2022-07-26T00:10:17.655Z,99.90
2022-07-26T00:12:46.330Z,99.90
2022-07-26T00:15:15.073Z,99.90
2022-07-26T00:17:43.733Z,99.90
2022-07-26T00:20:12.751Z,99.90
2022-07-26T00:22:41.932Z,99.90
2022-07-26T00:25:11.281Z,99.90
2022-07-26T00:27:41.476Z,99.90
2022-07-26T00:30:11.849Z,99.90
2022-07-26T00:32:40.644Z,99.90
2022-07-26T00:35:10.040Z,99.90
2022-07-26T00:37:38.708Z,99.90
2022-07-26T00:40:08.956Z,99.90
2022-07-26T00:42:38.121Z,99.90
2022-07-26T00:45:10.042Z,99.90
2022-07-26T00:47:39.086Z,99.90
2022-07-26T00:50:11.114Z,99.90
2022-07-26T00:52:39.958Z,99.90
2022-07-26T00:55:09.229Z,99.90
2022-07-26T00:57:38.245Z,99.90
2022-07-26T01:00:11.804Z,99.90
2022-07-26T01:02:41.258Z,99.90
2022-07-26T01:05:10.441Z,99.90
2022-07-26T01:07:40.416Z,99.90
2022-07-26T01:10:12.987Z,99.90
2022-07-26T01:12:41.744Z,99.90
2022-07-26T01:15:15.429Z,99.90
2022-07-26T01:17:45.132Z,99.90
2022-07-26T01:20:15.075Z,99.90
2022-07-26T01:22:45.232Z,1.00
2022-07-26T01:25:14.122Z,1.00
2022-07-26T01:27:42.913Z,99.90
2022-07-26T01:30:13.681Z,1.00
2022-07-26T01:32:42.366Z,99.90
2022-07-26T01:35:12.081Z,99.90
2022-07-26T01:37:40.738Z,1.00
2022-07-26T01:40:12.136Z,1.00
2022-07-26T01:42:41.423Z,1.00
2022-07-26T01:45:11.390Z,1.00
2022-07-26T01:47:40.795Z,1.00
2022-07-26T01:50:10.681Z,1.00
2022-07-26T01:52:39.612Z,1.00
2022-07-26T01:55:08.597Z,1.00
2022-07-26T01:57:38.643Z,1.00
2022-07-26T02:00:08.750Z,1.00
2022-07-26T02:02:37.449Z,1.00
2022-07-26T02:05:06.793Z,1.00
2022-07-26T02:07:42.781Z,1.00
2022-07-26T02:10:14.603Z,1.00
2022-07-26T02:12:45.261Z,1.00
2022-07-26T02:15:15.536Z,1.00
2022-07-26T02:17:44.852Z,1.00
2022-07-26T02:20:17.194Z,1.00
2022-07-26T02:22:45.910Z,1.00
2022-07-26T02:25:14.566Z,1.00
2022-07-26T02:27:44.662Z,1.00
2022-07-26T02:30:14.204Z,1.00
2022-07-26T02:32:44.038Z,1.00
2022-07-26T02:35:12.778Z,1.00
2022-07-26T02:37:43.889Z,1.30
2022-07-26T02:40:18.817Z,1.00
2022-07-26T02:42:49.522Z,33.40
2022-07-26T02:45:18.185Z,14.50
2022-07-26T02:47:48.053Z,93.40
2022-07-26T02:50:19.094Z,99.90
2022-07-26T02:52:48.529Z,1.00
2022-07-26T02:55:18.184Z,99.90
2022-07-26T02:57:48.334Z,1.00
2022-07-26T03:00:18.650Z,1.00
2022-07-26T03:02:49.353Z,99.90
2022-07-26T03:05:18.699Z,99.90
2022-07-26T03:07:47.928Z,18.10
2022-07-26T03:10:16.931Z,99.90
2022-07-26T03:12:45.683Z,1.00
2022-07-26T03:15:15.790Z,99.90
2022-07-26T03:17:44.488Z,96.90
2022-07-26T03:20:14.279Z,71.50
2022-07-26T03:22:43.037Z,1.00
2022-07-26T03:25:11.746Z,1.00
2022-07-26T03:27:40.550Z,99.90
2022-07-26T03:30:10.448Z,99.90
2022-07-26T03:32:40.502Z,1.00
2022-07-26T03:35:10.243Z,99.90
2022-07-26T03:37:45.848Z,99.90
2022-07-26T03:40:16.502Z,9.20
2022-07-26T03:42:45.918Z,9.00
2022-07-26T03:45:15.617Z,99.90
2022-07-26T03:47:46.695Z,99.90
2022-07-26T03:50:15.347Z,99.90
2022-07-26T03:52:44.093Z,99.90
2022-07-26T03:55:30.482Z,1.00
2022-07-26T03:57:59.414Z,1.00
2022-07-26T04:00:28.374Z,1.00
2022-07-26T04:02:58.515Z,1.00
2022-07-26T04:05:27.223Z,1.00
2022-07-26T04:07:56.732Z,1.00
2022-07-26T04:10:25.622Z,1.00
2022-07-26T04:12:54.515Z,1.00
2022-07-26T04:15:23.426Z,1.00
2022-07-26T04:17:52.117Z,1.00
2022-07-26T04:20:22.253Z,1.00
2022-07-26T04:22:50.960Z,1.00
2022-07-26T04:25:19.677Z,1.00
2022-07-26T04:27:48.323Z,1.00
2022-07-26T04:30:17.324Z,1.00
2022-07-26T04:32:46.986Z,1.00
2022-07-26T04:35:16.936Z,1.00
2022-07-26T04:37:47.729Z,1.00
2022-07-26T04:40:21.422Z,1.00
2022-07-26T04:42:53.383Z,1.00
2022-07-26T04:45:22.924Z,1.00
2022-07-26T04:47:51.676Z,1.00
2022-07-26T04:50:21.603Z,1.00
2022-07-26T04:52:53.310Z,99.90
2022-07-26T04:55:22.621Z,99.90
2022-07-26T04:57:52.037Z,99.90
2022-07-26T05:00:25.063Z,99.90
2022-07-26T05:02:56.332Z,22.70
2022-07-26T05:05:26.418Z,99.90
2022-07-26T05:07:58.447Z,99.90
2022-07-26T05:10:31.784Z,7.50
2022-07-26T05:13:00.659Z,1.00
2022-07-26T05:15:35.491Z,1.00
2022-07-26T05:18:07.333Z,99.90
2022-07-26T05:20:38.955Z,55.90
2022-07-26T05:23:09.115Z,1.00
2022-07-26T05:25:38.146Z,99.90
2022-07-26T05:28:07.002Z,99.90
2022-07-26T05:30:35.744Z,1.00
2022-07-26T05:33:04.452Z,99.90
2022-07-26T05:35:33.119Z,99.90
2022-07-26T05:38:01.661Z,99.90
2022-07-26T05:40:31.853Z,99.90
2022-07-26T05:43:00.719Z,99.90
2022-07-26T05:45:29.691Z,99.90
2022-07-26T05:47:58.921Z,99.90
2022-07-26T05:50:27.620Z,99.90
2022-07-26T05:52:56.174Z,99.90
2022-07-26T05:55:24.943Z,90.90
2022-07-26T05:57:54.924Z,50.70
2022-07-26T06:00:23.545Z,99.90
2022-07-26T06:02:52.286Z,99.90
2022-07-26T06:05:21.049Z,99.90
2022-07-26T06:07:49.736Z,82.70
2022-07-26T06:10:18.452Z,99.90
2022-07-26T06:12:47.087Z,99.90
2022-07-26T06:15:17.220Z,99.90
2022-07-26T06:17:45.868Z,50.30
2022-07-26T06:20:14.599Z,96.10
2022-07-26T06:22:43.250Z,99.90
2022-07-26T06:25:11.946Z,99.90
2022-07-26T06:27:40.866Z,99.90
2022-07-26T06:30:10.848Z,1.00
2022-07-26T06:32:44.490Z,1.00
2022-07-26T06:35:13.203Z,1.00
2022-07-26T06:37:43.913Z,99.90
2022-07-26T06:40:13.468Z,1.00
2022-07-26T06:42:42.161Z,99.90
2022-07-26T06:45:11.789Z,99.90
2022-07-26T06:47:42.052Z,99.90
2022-07-26T06:50:11.654Z,99.90
2022-07-26T06:52:40.248Z,99.90
2022-07-26T06:55:09.819Z,99.90
2022-07-26T06:57:49.338Z,99.90
2022-07-26T07:00:20.408Z,99.90
2022-07-26T07:02:50.489Z,99.90
2022-07-26T07:05:19.291Z,99.90
2022-07-26T07:07:48.111Z,99.90
2022-07-26T07:10:16.830Z,99.90
2022-07-26T07:12:47.868Z,99.90
2022-07-26T07:15:16.489Z,99.90
2022-07-26T07:17:45.150Z,70.30
2022-07-26T07:20:15.632Z,99.90
2022-07-26T07:22:44.262Z,99.90
2022-07-26T07:25:14.700Z,99.90
2022-07-26T07:27:43.673Z,99.90
2022-07-26T07:30:13.470Z,99.90
2022-07-26T07:32:43.247Z,99.90
2022-07-26T07:35:14.734Z,99.90
2022-07-26T07:37:53.762Z,72.80
2022-07-26T07:40:23.298Z,99.90
2022-07-26T07:42:52.325Z,16.90
2022-07-26T07:45:21.140Z,1.00
2022-07-26T07:47:49.802Z,1.00
2022-07-26T07:50:19.981Z,1.00
2022-07-26T07:52:49.501Z,1.00
2022-07-26T07:55:36.412Z,1.00
2022-07-26T07:58:07.056Z,1.00
2022-07-26T08:00:36.037Z,1.00
2022-07-26T08:03:06.043Z,1.00
2022-07-26T08:05:40.688Z,1.00
2022-07-26T08:08:09.623Z,1.00
2022-07-26T08:10:41.762Z,1.00
2022-07-26T08:13:21.537Z,1.00
2022-07-26T08:15:50.981Z,1.00
2022-07-26T08:18:22.561Z,1.00
2022-07-26T08:20:54.167Z,1.00
2022-07-26T08:23:23.779Z,1.00
2022-07-26T08:25:57.363Z,1.00
2022-07-26T08:31:19.598Z,1.00
2022-07-26T08:33:48.437Z,1.00
2022-07-26T08:36:19.251Z,1.00
2022-07-26T08:38:48.537Z,1.00
2022-07-26T08:41:18.446Z,1.00
2022-07-26T08:43:52.623Z,1.00
2022-07-26T08:46:26.857Z,1.00
2022-07-26T08:48:57.000Z,1.00
2022-07-26T08:51:28.157Z,1.00
2022-07-26T08:54:04.705Z,1.00
2022-07-26T08:56:34.478Z,1.00
2022-07-26T08:59:07.000Z,1.00
2022-07-26T09:01:36.304Z,1.00
2022-07-26T09:04:31.113Z,1.00
2022-07-26T09:07:04.929Z,1.00
2022-07-26T09:09:36.537Z,1.00
2022-07-26T09:12:20.464Z,1.00
2022-07-26T09:14:50.062Z,1.00
2022-07-26T09:17:20.643Z,1.00
2022-07-26T09:20:06.506Z,1.00
2022-07-26T09:22:37.439Z,1.00
2022-07-26T09:25:22.190Z,1.00
2022-07-26T09:27:51.548Z,1.00
2022-07-26T09:30:20.952Z,1.00
2022-07-26T09:33:02.187Z,1.00
2022-07-26T09:35:50.556Z,1.00
2022-07-26T09:38:22.279Z,1.00
2022-07-26T09:40:51.860Z,1.00
2022-07-26T09:43:23.845Z,1.00
2022-07-26T09:46:06.240Z,1.00
2022-07-26T09:49:10.065Z,1.00
2022-07-26T09:51:43.816Z,1.00
2022-07-26T09:54:20.476Z,1.00
2022-07-26T09:56:50.447Z,1.00
2022-07-26T09:59:20.822Z,1.00
2022-07-26T10:01:50.438Z,1.00
2022-07-26T10:04:20.408Z,1.00
2022-07-26T10:06:49.131Z,1.00
2022-07-26T10:09:19.910Z,1.00
2022-07-26T10:11:54.603Z,1.00
2022-07-26T10:14:41.850Z,1.00
2022-07-26T10:17:49.518Z,1.00
2022-07-26T10:20:44.527Z,1.00
2022-07-26T10:23:35.489Z,1.00
2022-07-26T10:26:07.733Z,1.00
2022-07-26T10:28:40.685Z,1.00
2022-07-26T10:31:29.755Z,1.00
2022-07-26T10:34:01.401Z,1.00
2022-07-26T10:36:34.567Z,1.00
2022-07-26T10:39:11.973Z,1.00
2022-07-26T10:41:44.751Z,1.00
2022-07-26T10:44:19.053Z,1.00
2022-07-26T10:47:18.884Z,1.00
2022-07-26T10:49:58.053Z,1.00
2022-07-26T10:52:29.726Z,1.00
2022-07-26T10:55:17.663Z,1.00
2022-07-26T10:57:50.365Z,1.00
2022-07-26T11:00:24.406Z,1.00
2022-07-26T11:03:00.611Z,1.00
2022-07-26T11:05:35.182Z,1.00
2022-07-26T11:08:12.253Z,1.00
2022-07-26T11:10:42.420Z,1.00
2022-07-26T11:13:18.594Z,99.90
2022-07-26T11:15:49.608Z,99.90
2022-07-26T11:18:22.859Z,99.90
2022-07-26T11:20:55.237Z,99.90
2022-07-26T11:23:29.276Z,99.90
2022-07-26T11:26:13.010Z,99.90
2022-07-26T11:28:57.620Z,99.90
2022-07-26T11:31:50.769Z,99.90
2022-07-26T11:34:20.851Z,99.90
2022-07-26T11:36:51.519Z,99.90
2022-07-26T11:39:24.273Z,1.00
2022-07-26T11:41:58.649Z,99.90
2022-07-26T11:44:29.737Z,99.90
2022-07-26T11:46:59.369Z,99.90
2022-07-26T11:49:59.892Z,99.90
2022-07-26T11:52:24.867Z,99.90
2022-07-26T11:54:54.852Z,99.90
2022-07-26T11:57:29.386Z,99.90
2022-07-26T12:00:00.799Z,99.90
2022-07-26T12:02:30.390Z,99.90
2022-07-26T12:05:16.637Z,99.90
2022-07-26T12:07:59.251Z,99.90
2022-07-26T12:10:29.125Z,99.90
2022-07-26T12:13:12.459Z,99.90
2022-07-26T12:15:54.002Z,99.90
2022-07-26T12:18:27.541Z,99.90
2022-07-26T12:21:04.872Z,99.90
2022-07-26T12:23:47.173Z,99.90
2022-07-26T12:26:23.737Z,99.90
2022-07-26T12:28:52.642Z,99.90
2022-07-26T12:31:29.666Z,99.90
2022-07-26T12:33:59.490Z,99.90
2022-07-26T12:36:30.177Z,99.90
2022-07-26T12:39:00.927Z,99.90
2022-07-26T12:41:34.432Z,99.90
2022-07-26T12:44:03.457Z,99.90
2022-07-26T12:46:36.343Z,99.90
2022-07-26T12:49:06.535Z,99.90
2022-07-26T12:51:35.726Z,99.90
2022-07-26T12:54:06.715Z,99.90
2022-07-26T12:56:36.970Z,99.90
2022-07-26T12:59:05.834Z,99.90
2022-07-26T13:01:35.967Z,99.90
2022-07-26T13:04:04.903Z,99.90
2022-07-26T13:06:34.283Z,99.90
2022-07-26T13:09:03.026Z,99.90
2022-07-26T13:11:32.525Z,99.90
2022-07-26T13:14:01.164Z,99.90
2022-07-26T13:16:29.968Z,99.90
2022-07-26T13:19:00.107Z,99.90
2022-07-26T13:21:33.383Z,99.90
2022-07-26T13:24:02.717Z,99.90
2022-07-26T13:26:31.436Z,99.90
2022-07-26T13:29:00.106Z,99.90
2022-07-26T13:31:28.880Z,99.90
2022-07-26T13:33:57.580Z,99.90
2022-07-26T13:36:27.841Z,99.90
2022-07-26T13:38:56.602Z,99.90
2022-07-26T13:41:25.385Z,99.90
2022-07-26T13:43:54.573Z,99.90
2022-07-26T13:46:24.086Z,99.90
2022-07-26T13:49:00.954Z,99.90
2022-07-26T13:51:51.118Z,99.90
2022-07-26T13:54:21.243Z,99.90
2022-07-26T13:56:50.897Z,99.90
2022-07-26T13:59:20.204Z,99.90
2022-07-26T14:01:49.904Z,99.90
2022-07-26T14:04:18.667Z,99.90
2022-07-26T14:06:49.129Z,99.90
2022-07-26T14:09:18.291Z,99.90
2022-07-26T14:11:47.115Z,99.90
2022-07-26T14:14:16.049Z,99.90
2022-07-26T14:16:48.127Z,99.90
2022-07-26T14:19:18.469Z,99.90
2022-07-26T14:21:59.118Z,99.90
2022-07-26T14:24:30.331Z,99.90
2022-07-26T14:27:03.011Z,99.90
2022-07-26T14:29:32.055Z,99.90
2022-07-26T14:32:01.173Z,99.90
2022-07-26T14:34:30.294Z,99.90
2022-07-26T14:37:01.103Z,99.90
2022-07-26T14:39:37.552Z,99.90
2022-07-26T14:42:06.411Z,99.90
2022-07-26T14:44:36.233Z,99.90
2022-07-26T14:47:13.658Z,99.90
2022-07-26T14:49:42.620Z,99.90
2022-07-26T14:52:13.261Z,99.90
2022-07-26T14:54:42.044Z,99.90
2022-07-26T14:57:10.861Z,99.90
2022-07-26T14:59:39.733Z,99.90
2022-07-26T15:02:08.536Z,99.90
2022-07-26T15:04:37.867Z,99.90
2022-07-26T15:07:06.685Z,99.90
2022-07-26T15:09:36.863Z,99.90
2022-07-26T15:12:06.181Z,99.90
2022-07-26T15:14:34.921Z,99.90
2022-07-26T15:17:03.832Z,99.90
2022-07-26T15:19:32.657Z,99.90
2022-07-26T15:22:04.119Z,99.90
2022-07-26T15:24:36.453Z,99.90
2022-07-26T15:27:10.557Z,99.90
2022-07-26T15:29:39.459Z,99.90
2022-07-26T15:32:09.015Z,99.90
2022-07-26T15:34:38.050Z,99.90
2022-07-26T15:37:07.045Z,99.90
2022-07-26T15:39:36.059Z,99.90
2022-07-26T15:42:07.743Z,99.90
2022-07-26T15:44:40.448Z,99.90
2022-07-26T15:47:09.684Z,99.90
2022-07-26T15:49:40.617Z,99.90
2022-07-26T15:52:12.292Z,99.90
2022-07-26T15:54:43.036Z,99.90
2022-07-26T15:57:12.173Z,99.90
2022-07-26T15:59:42.483Z,99.90
2022-07-26T16:02:12.074Z,99.90
2022-07-26T16:04:41.290Z,99.90
2022-07-26T16:07:10.035Z,99.90
2022-07-26T16:09:38.892Z,99.90
2022-07-26T16:12:08.655Z,99.90
2022-07-26T16:14:37.509Z,99.90
2022-07-26T16:17:07.937Z,99.90
2022-07-26T16:19:36.656Z,99.90
2022-07-26T16:22:06.401Z,99.90
2022-07-26T16:24:37.318Z,99.90
2022-07-26T16:27:07.250Z,99.90
2022-07-26T16:29:37.116Z,99.90
2022-07-26T16:32:09.626Z,99.90
2022-07-26T16:34:38.666Z,99.90
2022-07-26T16:37:07.987Z,99.90
2022-07-26T16:39:36.772Z,99.90
2022-07-26T16:42:07.389Z,99.90
2022-07-26T16:44:37.193Z,99.90
2022-07-26T16:47:07.540Z,99.90
2022-07-26T16:49:36.432Z,99.90
2022-07-26T16:52:05.397Z,99.90
2022-07-26T16:54:34.472Z,99.90
2022-07-26T16:57:03.517Z,99.90
2022-07-26T16:59:32.296Z,99.90
2022-07-26T17:02:01.606Z,99.90
2022-07-26T17:04:33.300Z,99.90
2022-07-26T17:07:24.137Z,99.90
2022-07-26T17:09:50.950Z,99.90
2022-07-26T17:12:19.936Z,99.90
2022-07-26T17:14:48.781Z,99.90
2022-07-26T17:17:17.610Z,99.90
2022-07-26T17:19:47.865Z,99.90
2022-07-26T17:22:16.815Z,99.90
2022-07-26T17:24:45.549Z,99.90
2022-07-26T17:27:14.694Z,99.90
2022-07-26T17:29:43.876Z,99.90
2022-07-26T17:32:12.858Z,99.90
2022-07-26T17:34:41.950Z,99.90
2022-07-26T17:37:12.117Z,99.90
2022-07-26T17:39:52.267Z,99.90
2022-07-26T17:42:22.271Z,99.90
2022-07-26T17:44:51.366Z,99.90
2022-07-26T17:47:28.822Z,99.90
2022-07-26T17:50:26.370Z,99.90
2022-07-26T17:52:52.130Z,99.90
2022-07-26T17:55:22.244Z,99.90
2022-07-26T17:57:51.614Z,99.90
2022-07-26T18:00:22.555Z,99.90
2022-07-26T18:02:51.867Z,99.90
2022-07-26T18:05:20.858Z,99.90
2022-07-26T18:07:51.115Z,99.90
2022-07-26T18:10:19.863Z,99.90
2022-07-26T18:12:48.585Z,99.90
2022-07-26T18:15:17.389Z,99.90
2022-07-26T18:17:46.122Z,99.90
2022-07-26T18:20:14.893Z,99.90
2022-07-26T18:22:45.687Z,99.90
2022-07-26T18:25:16.337Z,99.90
2022-07-26T18:27:45.267Z,99.90
2022-07-26T18:30:14.207Z,99.90
2022-07-26T18:32:43.057Z,99.90
2022-07-26T18:35:12.260Z,99.90
2022-07-26T18:37:41.113Z,99.90
2022-07-26T18:40:10.892Z,99.90
2022-07-26T18:42:41.163Z,99.90
2022-07-26T18:45:10.576Z,99.90
2022-07-26T18:47:39.872Z,99.90
2022-07-26T18:50:10.353Z,99.90
2022-07-26T18:52:40.550Z,99.90
2022-07-26T18:55:12.624Z,99.90
2022-07-26T18:57:44.495Z,99.90
2022-07-26T19:00:15.986Z,99.90
2022-07-26T19:02:45.375Z,99.90
2022-07-26T19:05:16.481Z,99.90
2022-07-26T19:07:46.058Z,99.90
2022-07-26T19:10:15.179Z,99.90
2022-07-26T19:12:45.815Z,99.90
2022-07-26T19:15:18.375Z,99.90
2022-07-26T19:17:47.315Z,99.90
2022-07-26T19:20:16.295Z,99.90
2022-07-26T19:22:47.345Z,99.90
2022-07-26T19:25:16.750Z,99.90
2022-07-26T19:27:46.917Z,99.90
2022-07-26T19:30:15.900Z,99.90
2022-07-26T19:32:44.719Z,1.00
2022-07-26T19:35:13.691Z,1.00
2022-07-26T19:37:42.535Z,1.00
2022-07-26T19:40:12.742Z,1.00
2022-07-26T19:42:42.355Z,1.00
2022-07-26T19:45:17.296Z,1.00
2022-07-26T19:47:46.549Z,1.00
2022-07-26T19:50:15.330Z,1.00
2022-07-26T19:52:44.145Z,1.00
2022-07-26T19:55:13.558Z,1.00
2022-07-26T19:57:42.439Z,1.00
2022-07-26T20:00:14.354Z,1.00
2022-07-26T20:02:43.525Z,1.00
2022-07-26T20:05:13.525Z,1.00
2022-07-26T20:07:42.503Z,1.00
2022-07-26T20:10:20.200Z,1.00
2022-07-26T20:12:49.500Z,1.00
2022-07-26T20:15:34.990Z,1.00
2022-07-26T20:18:04.466Z,1.00
2022-07-26T20:20:34.828Z,1.00
2022-07-26T20:23:06.833Z,1.00
2022-07-26T20:25:38.001Z,1.00
2022-07-26T20:28:07.974Z,1.00
2022-07-26T20:30:39.891Z,1.00
2022-07-26T20:33:09.110Z,1.00
2022-07-26T20:36:28.186Z,1.00
2022-07-26T20:39:08.169Z,1.00
2022-07-26T20:41:53.753Z,1.00
2022-07-26T20:44:32.101Z,1.00
2022-07-26T20:47:03.327Z,1.00
2022-07-26T20:49:39.743Z,1.00
2022-07-26T20:52:09.099Z,1.00
2022-07-26T20:54:38.008Z,1.00
2022-07-26T20:57:07.571Z,1.00
2022-07-26T20:59:36.490Z,1.00
2022-07-26T21:02:11.678Z,1.00
2022-07-26T21:04:44.611Z,1.00
2022-07-26T21:07:16.084Z,1.00
2022-07-26T21:09:49.254Z,1.00
2022-07-26T21:12:20.261Z,1.00
2022-07-26T21:14:51.324Z,16.40
2022-07-26T21:17:21.982Z,38.10
2022-07-26T21:20:03.324Z,40.50
2022-07-26T21:22:32.885Z,98.20
2022-07-26T21:25:03.753Z,99.90
2022-07-26T21:27:32.862Z,87.90
2022-07-26T21:30:02.505Z,99.90
2022-07-26T21:32:32.802Z,98.10
2022-07-26T21:35:01.852Z,99.90
2022-07-26T21:37:30.929Z,99.90
2022-07-26T21:40:00.955Z,99.90
2022-07-26T21:42:30.442Z,99.90
2022-07-26T21:44:59.267Z,99.90
2022-07-26T21:47:28.030Z,99.90
2022-07-26T21:49:58.162Z,99.90
2022-07-26T21:52:26.827Z,99.90
2022-07-26T21:54:55.589Z,99.90
2022-07-26T21:57:24.318Z,99.90
2022-07-26T21:59:53.193Z,99.90
2022-07-26T22:02:22.046Z,99.90
2022-07-26T22:04:50.852Z,99.90
2022-07-26T22:07:21.062Z,99.90
2022-07-26T22:09:50.038Z,99.90
2022-07-26T22:12:18.800Z,99.90
2022-07-26T22:14:47.819Z,1.00
2022-07-26T22:17:16.496Z,1.00
2022-07-26T22:19:45.310Z,1.00
2022-07-26T22:22:14.040Z,1.00
2022-07-26T22:24:44.138Z,1.00
2022-07-26T22:27:12.944Z,1.00
2022-07-26T22:29:41.661Z,65.80
2022-07-26T22:32:10.442Z,99.90
2022-07-26T22:34:39.209Z,99.90
2022-07-26T22:37:07.884Z,99.90
2022-07-26T22:39:36.857Z,99.90
2022-07-26T22:42:15.518Z,55.80
2022-07-26T22:44:44.956Z,99.90
2022-07-26T22:47:13.654Z,99.90
2022-07-26T22:49:42.490Z,99.90
2022-07-26T22:52:11.332Z,1.00
2022-07-26T22:54:40.013Z,93.30
2022-07-26T22:57:10.148Z,1.00
2022-07-26T22:59:39.012Z,1.00
2022-07-26T23:02:07.733Z,99.90
2022-07-26T23:04:36.459Z,1.00
2022-07-26T23:07:05.449Z,99.90
2022-07-26T23:09:34.287Z,99.90
2022-07-26T23:12:02.998Z,99.90
2022-07-26T23:14:33.296Z,1.00
2022-07-26T23:17:02.082Z,1.00
2022-07-26T23:19:30.890Z,1.00
2022-07-26T23:21:59.548Z,1.00
2022-07-26T23:24:28.202Z,1.00
2022-07-26T23:26:56.889Z,10.80
2022-07-26T23:29:25.568Z,99.90
2022-07-26T23:31:55.946Z,99.90
2022-07-26T23:34:24.973Z,99.90
2022-07-26T23:36:53.645Z,1.00
2022-07-26T23:39:22.779Z,99.90
2022-07-26T23:41:51.430Z,99.90
2022-07-26T23:44:20.088Z,1.00
2022-07-26T23:46:48.865Z,99.90
2022-07-26T23:49:19.111Z,99.90
2022-07-26T23:51:47.835Z,99.90
2022-07-26T23:54:16.538Z,99.90
2022-07-26T23:56:45.901Z,1.00
2022-07-26T23:59:15.370Z,1.00
